• Join FlightAware (Why Join?)
  • Login
  • US Flag 
10:03PM EDT


 

Airport Tracker/Info


-or-


 

Live Flight TrackerFlight Track Log ✈ VH-JHD ✈ 20-Oct-2013 ✈ YPJT / JAD - YDEK

Flight Track Log - Related Links

Times and Time Zones

All times are in EDT time to prevent confusion due to time zone crossing. See the VH-JHD flight status page for this flight to view local times or setup timezone preferences in your user account.

Time Position Orientation Groundspeed Altitude Reporting Facility
EDT Latitude Longitude Course Direction KTS MPH feet Rate Location/Type
08:51PM -32.1023 115.8703 215° Southwest 81 93 400  Level Aus ATC (RADAR)
08:52PM -32.1150 115.8598 215° Southwest 89 102 1,000 960 Climbing Aus ATC (RADAR)
08:52PM -32.1203 115.8729 116° Southeast 80 92 1,600 900 Climbing Aus ATC (RADAR)
08:53PM -32.1122 115.8947 66° East 92 106 2,200 720 Climbing Aus ATC (RADAR)
08:54PM -32.1068 115.9061 61° Northeast 93 107 2,500 600 Climbing Aus ATC (RADAR)
08:54PM -32.1120 115.9210 113° Southeast 85 98 2,800 660 Climbing Aus ATC (RADAR)
08:55PM -32.1355 115.9212 180° South 84 97 3,600 720 Climbing Aus ATC (RADAR)
08:56PM -32.1453 115.9213 179° South 84 97 3,900 600 Climbing Aus ATC (RADAR)
08:56PM -32.1584 115.9266 161° South 84 97 4,200 660 Climbing Aus ATC (RADAR)
08:57PM -32.1742 115.9339 159° South 79 91 4,800 600 Climbing Aus ATC (RADAR)
08:57PM -32.1850 115.9389 159° South 81 93 5,000 240 Climbing Aus ATC (RADAR)
08:58PM -32.2007 115.9465 158° South 103 119 5,100  Climbing Aus ATC (RADAR)
08:59PM -32.2189 115.9553 158° South 119 137 5,000 -120 Descending Aus ATC (RADAR)
08:59PM -32.2346 115.9631 157° South 121 139 5,000  Level Aus ATC (RADAR)
09:00PM -32.2668 115.9798 156° South 125 144 5,000  Level Aus ATC (RADAR)
09:01PM -32.2802 115.9869 156° South 125 144 5,000  Level Aus ATC (RADAR)
09:01PM -32.2941 115.9928 160° South 126 145 5,000  Level Aus ATC (RADAR)
09:02PM -32.3135 116.0004 162° South 126 145 5,000  Level Aus ATC (RADAR)
09:02PM -32.3355 116.0088 162° South 123 142 5,000  Level Aus ATC (RADAR)
09:03PM -32.3544 116.0168 160° South 121 139 5,000  Level Aus ATC (RADAR)
09:03PM -32.3744 116.0230 165° South 125 144 5,000  Level Aus ATC (RADAR)
09:04PM -32.3945 116.0278 169° South 124 143 5,000  Level Aus ATC (RADAR)
09:05PM -32.4129 116.0381 155° Southeast 122 140 5,000  Level Aus ATC (RADAR)
09:06PM -32.4440 116.0549 155° Southeast 120 138 5,000 60 Level Aus ATC (RADAR)
09:06PM -32.4569 116.0623 154° Southeast 119 137 5,100  Climbing Aus ATC (RADAR)
09:07PM -32.4747 116.0730 153° Southeast 122 140 5,000 -120 Descending Aus ATC (RADAR)
09:07PM -32.4950 116.0849 154° Southeast 122 140 5,000 60 Level Aus ATC (RADAR)
09:08PM -32.5125 116.0964 151° Southeast 122 140 5,100 60 Climbing Aus ATC (RADAR)
09:08PM -32.5299 116.1065 154° Southeast 119 137 5,100  Level Aus ATC (RADAR)
09:09PM -32.5471 116.1169 153° Southeast 116 133 5,100  Level Aus ATC (RADAR)
09:10PM -32.5673 116.1290 153° Southeast 119 137 5,100  Level Aus ATC (RADAR)
09:11PM -32.5944 116.1454 153° Southeast 118 136 5,100  Level Aus ATC (RADAR)
09:11PM -32.6067 116.1501 162° South 113 130 5,100  Level Aus ATC (RADAR)
09:12PM -32.6238 116.1609 152° Southeast 118 136 5,100  Level Aus ATC (RADAR)
09:12PM -32.6428 116.1706 157° South 112 129 5,100  Level Aus ATC (RADAR)
09:13PM -32.6594 116.1803 154° Southeast 113 130 5,100  Level Aus ATC (RADAR)
09:13PM -32.6759 116.1897 154° Southeast 112 129 5,100  Level Aus ATC (RADAR)
09:14PM -32.6927 116.1986 156° South 111 128 5,100  Level Aus ATC (RADAR)
09:15PM -32.7095 116.2084 154° Southeast 113 130 5,100  Level Aus ATC (RADAR)
09:16PM -32.7429 116.2274 154° Southeast 114 131 5,100  Level Aus ATC (RADAR)
09:16PM -32.7552 116.2344 154° Southeast 115 132 5,100  Level Aus ATC (RADAR)
09:17PM -32.7727 116.2425 159° South 115 132 5,100  Level Aus ATC (RADAR)
09:17PM -32.7920 116.2532 155° Southeast 114 131 5,100  Level Aus ATC (RADAR)
09:18PM -32.8084 116.2633 153° Southeast 113 130 5,100  Level Aus ATC (RADAR)
09:19PM -32.8300 116.2761 153° Southeast 114 131 5,100  Level Aus ATC (RADAR)
09:19PM -32.8429 116.2839 153° Southeast 121 139 5,100  Level Aus ATC (RADAR)
09:20PM -32.8603 116.2953 151° Southeast 120 138 5,100  Level Aus ATC (RADAR)
09:21PM -32.8860 116.3092 156° South 121 139 5,100  Level Aus ATC (RADAR)
09:21PM -32.8991 116.3162 156° South 123 142 5,100  Level Aus ATC (RADAR)
09:22PM -32.9183 116.3257 157° South 126 145 5,100  Level Aus ATC (RADAR)
09:22PM -32.9413 116.3383 155° Southeast 118 136 5,100  Level Aus ATC (RADAR)
09:23PM -32.9581 116.3482 154° Southeast 114 131 5,100  Level Aus ATC (RADAR)
09:23PM -32.9760 116.3574 157° South 118 136 5,100  Level Aus ATC (RADAR)
09:24PM -32.9942 116.3644 162° South 117 135 5,100  Level Aus ATC (RADAR)
09:25PM -33.0125 116.3740 156° South 123 142 5,100  Level Aus ATC (RADAR)
09:26PM -33.0448 116.3902 157° South 122 140 5,100  Level Aus ATC (RADAR)
09:26PM -33.0575 116.3982 152° Southeast 122 140 5,100  Level Aus ATC (RADAR)
09:26PM -33.0705 116.4056 154° Southeast 123 142 5,100  Level Aus ATC (RADAR)
09:27PM -33.0884 116.4136 159° South 118 136 5,100  Level Aus ATC (RADAR)
09:28PM -33.1082 116.4255 153° Southeast 119 137 5,100  Level Aus ATC (RADAR)
09:28PM -33.1261 116.4336 159° South 117 135 5,100  Level Aus ATC (RADAR)
09:29PM -33.1442 116.4409 161° South 117 135 5,100  Level Aus ATC (RADAR)
09:29PM -33.1610 116.4506 154° Southeast 114 131 5,100  Level Aus ATC (RADAR)
09:30PM -33.1788 116.4588 159° South 117 135 5,100  Level Aus ATC (RADAR)
09:31PM -33.2051 116.4726 156° South 124 143 5,100  Level Aus ATC (RADAR)
09:31PM -33.2176 116.4794 156° South 120 138 5,100  Level Aus ATC (RADAR)
09:32PM -33.2358 116.4884 158° South 123 142 5,100 -120 Level Aus ATC (RADAR)
09:32PM -33.2572 116.4989 158° South 122 140 5,000 -120 Descending Aus ATC (RADAR)
09:33PM -33.2751 116.5074 158° South 118 136 5,000  Level Aus ATC (RADAR)
09:34PM -33.2923 116.5182 152° Southeast 120 138 5,000  Level Aus ATC (RADAR)
09:34PM -33.3093 116.5269 157° South 115 132 5,000  Level Aus ATC (RADAR)
09:35PM -33.3193 116.5313 160° South 115 132 5,000  Level Aus ATC (RADAR)
09:38PM -33.4212 116.5845 156° South -1,680 Descending Aus ATC (Calculated)
09:40PM -33.4731 116.6116 156° South  Level FlightAware Approximate
09:41PM -33.5009 116.6262 156° South  Level FlightAware Approximate
09:42PM -33.5286 116.6407 156° South  Level FlightAware Approximate
09:43PM -33.5564 116.6553 156° South  Level FlightAware Approximate
09:44PM -33.5842 116.6699 156° South  Level FlightAware Approximate
09:45PM -33.6120 116.6845 156° South  Level FlightAware Approximate
09:46PM -33.6398 116.6991 156° South  Level FlightAware Approximate
09:47PM -33.6675 116.7137 156° South  Level FlightAware Approximate
09:48PM -33.6953 116.7283 156° South  Level FlightAware Approximate
09:49PM -33.7231 116.7429 156° South  Level FlightAware Approximate
09:49PM -33.7075 116.7347 156° South  Level Aus ATC (Calculated)
09:50PM -33.7353 116.7493 156° South  Level FlightAware Approximate
09:51PM -33.7630 116.7640 156° South  Level FlightAware Approximate
09:52PM -33.7908 116.7786 156° South  Level FlightAware Approximate
09:53PM -33.8186 116.7933 156° South  Level FlightAware Approximate
09:54PM -33.8463 116.8079 156° South  Level FlightAware Approximate
09:55PM -33.8741 116.8226 156° South  Level FlightAware Approximate
09:56PM -33.9019 116.8373 156° South  Level FlightAware Approximate
09:57PM -33.9296 116.8520 156° South  Level FlightAware Approximate
09:58PM -33.9574 116.8667 156° South  Level FlightAware Approximate
09:58PM -33.9400 116.8575 156° South  Level Aus ATC (Calculated)
10:00PM -33.9756 116.8763 156° South  Level FlightAware Approximate
10:01PM -34.0033 116.8911 156° South  Level FlightAware Approximate
10:02PM -34.0311 116.9058 156° South  Level FlightAware Approximate
10:03PM -34.0588 116.9205 156° South  Level FlightAware Approximate
10:04PM -34.0866 116.9353 156° South  Level FlightAware Approximate
10:05PM -34.1143 116.9500 156° South  Level FlightAware Approximate
10:06PM -34.1421 116.9648 156° South  Level FlightAware Approximate
10:07PM -34.1698 116.9796 156° South  Level FlightAware Approximate
10:08PM -34.1976 116.9944 156° South  Level FlightAware Approximate
10:09PM -34.2253 117.0091 156° South  Level FlightAware Approximate
10:10PM -34.2531 117.0239 156° South  Level FlightAware Approximate
10:11PM -34.2808 117.0388 156° South  Level FlightAware Approximate
10:12PM -34.3085 117.0536 156° South  Level FlightAware Approximate
10:13PM -34.3363 117.0684 156° South  Level FlightAware Approximate
10:13PM -34.3804 117.0920 336° Northwest  Level Aus ATC (Calculated)
10:14PM -34.3640 117.0833 156° South  Level FlightAware Approximate
10:15PM -34.4090 117.1074 156° South  Level FlightAware Approximate
10:16PM -34.4367 117.1222 156° South  Level FlightAware Approximate
10:17PM -34.4645 117.1371 156° South  Level FlightAware Approximate
10:18PM -34.4922 117.1520 156° South  Level FlightAware Approximate
10:19PM -34.5199 117.1669 156° South  Level FlightAware Approximate
10:20PM -34.5476 117.1818 156° South  Level FlightAware Approximate
10:21PM -34.5754 117.1967 156° South  Level FlightAware Approximate
10:22PM -34.6031 117.2117 156° South  Level FlightAware Approximate
10:23PM -34.6308 117.2266 156° South  Level FlightAware Approximate
10:24PM -34.6585 117.2416 156° South  Level FlightAware Approximate
10:25PM -34.6862 117.2565 156° South  Level FlightAware Approximate
10:26PM -34.7139 117.2715 156° South  Level FlightAware Approximate
10:27PM -34.7416 117.2865 156° South  Level FlightAware Approximate
10:28PM -34.7693 117.3015 156° South  Level FlightAware Approximate
10:29PM -34.7970 117.3165 156° South  Level FlightAware Approximate
10:29PM -34.8045 117.3205 156° South  Level Aus ATC (Calculated)
10:31PM -34.8595 117.3503 156° South  Level FlightAware Approximate
10:32PM -34.8872 117.3653 156° South  Level FlightAware Approximate
10:33PM -34.9149 117.3804 156° South  Level FlightAware Approximate
10:33PM -34.9458 117.3972 336° Northwest  Level Aus ATC (Calculated)
10:34PM -34.9426 117.3954 156° South  Level FlightAware Approximate
10:35PM -34.9458 117.3972 270° West  Level Estimated
10:36PM -34.9458 117.3972 151° Southeast  Level Estimated
10:37PM -34.9458 117.3972 151° Southeast  Level Estimated
10:38PM -34.9458 117.3972 156° South  Level Estimated
10:39PM -34.9458 117.3972 156° South  Level Estimated
10:40PM -34.9458 117.3972 156° South  Level Estimated